Time;durP1;ratioP1;P1;durP2;ratioP2;P2;SDS_P1;SDS_P2;PMS_P1;PMS_P2;Temp;Humidity;BMP_temperature;BMP_pressure;BME280_temperature;BME280_humidity;BME280_pressure;Samples;Min_cycle;Max_cycle;Signal;HPM_P1;HPM_P2
2023/03/29 00:01:20;;;;;;;8.17;5.77;;;5.40;62.80;;;;;;5022483;28;20510;-59
2023/03/29 00:03:46;;;;;;;11.20;7.10;;;5.40;63.10;;;;;;5019165;28;20212;-57
2023/03/29 00:06:20;;;;;;;10.70;6.10;;;5.40;63.30;;;;;;5023114;28;20442;-58
2023/03/29 00:08:49;;;;;;;11.83;6.07;;;5.50;63.50;;;;;;5025878;28;20199;-58
2023/03/29 00:11:16;;;;;;;9.50;5.20;;;5.50;63.00;;;;;;5021715;28;20456;-57
2023/03/29 00:13:42;;;;;;;7.80;5.80;;;5.50;62.90;;;;;;5021263;28;20513;-58
2023/03/29 00:16:08;;;;;;;8.30;5.80;;;5.50;63.30;;;;;;5020013;28;20584;-59
2023/03/29 00:18:34;;;;;;;10.10;5.83;;;5.50;63.90;;;;;;5022152;28;21119;-56
2023/03/29 00:21:00;;;;;;;7.80;5.70;;;5.50;64.00;;;;;;5018076;28;20929;-58
2023/03/29 00:23:25;;;;;;;11.80;6.53;;;5.50;64.50;;;;;;5019191;28;20200;-59
2023/03/29 00:25:54;;;;;;;15.90;6.17;;;5.50;64.00;;;;;;5021728;28;20449;-58
2023/03/29 00:28:21;;;;;;;10.13;6.40;;;5.50;63.90;;;;;;5022871;28;20172;-58
2023/03/29 00:30:46;;;;;;;9.30;6.10;;;5.50;64.30;;;;;;5023539;28;20895;-59
2023/03/29 00:33:13;;;;;;;13.97;5.80;;;5.50;64.40;;;;;;5021031;28;20963;-59
2023/03/29 00:35:39;;;;;;;8.43;5.40;;;5.50;64.60;;;;;;5021349;28;20227;-59
2023/03/29 00:38:05;;;;;;;9.63;5.37;;;5.50;64.70;;;;;;5019279;28;20955;-59
2023/03/29 00:40:32;;;;;;;7.20;4.73;;;5.50;64.30;;;;;;5019443;28;20438;-59
2023/03/29 00:42:59;;;;;;;10.73;4.67;;;5.50;63.70;;;;;;5022493;28;20462;-58
2023/03/29 00:45:29;;;;;;;9.03;5.50;;;5.50;63.40;;;;;;5020747;28;20971;-58
2023/03/29 00:48:01;;;;;;;7.77;5.30;;;5.60;63.10;;;;;;5023048;28;20505;-58
2023/03/29 00:50:32;;;;;;;11.03;6.10;;;5.50;62.80;;;;;;5016517;28;21133;-59
2023/03/29 00:53:16;;;;;;;10.67;6.20;;;5.50;62.70;;;;;;5021567;28;20426;-59
2023/03/29 00:55:48;;;;;;;8.00;4.77;;;5.50;63.10;;;;;;5023449;28;20811;-59
2023/03/29 00:58:18;;;;;;;9.10;4.80;;;5.50;63.10;;;;;;5021114;28;20435;-59
2023/03/29 01:00:51;;;;;;;9.60;4.67;;;5.50;62.70;;;;;;5018581;28;20438;-58
2023/03/29 01:03:23;;;;;;;7.57;5.40;;;5.50;62.70;;;;;;5021877;28;20473;-59
2023/03/29 01:05:55;;;;;;;7.13;5.23;;;5.50;62.90;;;;;;5024334;28;20455;-59
2023/03/29 01:08:29;;;;;;;8.47;5.20;;;5.50;62.70;;;;;;5020896;28;20514;-59
2023/03/29 01:11:06;;;;;;;7.10;5.50;;;5.50;63.10;;;;;;5021472;28;20485;-59
2023/03/29 01:13:49;;;;;;;9.13;5.37;;;5.40;62.40;;;;;;5022369;28;20425;-59
2023/03/29 01:16:18;;;;;;;8.50;5.80;;;5.50;62.30;;;;;;5017168;28;20442;-58
2023/03/29 01:18:45;;;;;;;8.03;5.63;;;5.50;62.50;;;;;;5020226;28;20997;-59
2023/03/29 01:21:22;;;;;;;7.30;5.20;;;5.50;62.60;;;;;;5024396;28;20434;-58
2023/03/29 01:24:07;;;;;;;6.97;4.57;;;5.50;62.00;;;;;;5018113;28;20836;-58
2023/03/29 01:26:38;;;;;;;5.40;4.23;;;5.50;62.00;;;;;;5022080;28;20550;-58
2023/03/29 01:29:30;;;;;;;6.83;4.67;;;5.60;61.90;;;;;;5018407;28;20438;-58
2023/03/29 01:32:18;;;;;;;7.20;4.37;;;5.60;61.10;;;;;;5019827;28;20435;-58
2023/03/29 01:34:56;;;;;;;7.80;4.33;;;5.60;60.40;;;;;;5021313;28;20426;-58
2023/03/29 01:37:36;;;;;;;9.23;4.77;;;5.70;60.40;;;;;;5024966;28;20975;-58
2023/03/29 01:40:04;;;;;;;6.50;4.60;;;5.70;60.20;;;;;;5018599;28;20488;-58
2023/03/29 01:43:00;;;;;;;9.60;5.03;;;5.70;60.10;;;;;;5024312;28;20486;-58
2023/03/29 01:45:47;;;;;;;7.07;4.43;;;5.70;60.30;;;;;;5016984;28;20450;-59
2023/03/29 01:48:47;;;;;;;6.67;5.00;;;5.70;60.30;;;;;;5019223;28;21143;-58
2023/03/29 01:51:38;;;;;;;9.77;4.53;;;5.70;60.40;;;;;;5021768;28;20431;-58
2023/03/29 01:54:09;;;;;;;7.50;4.50;;;5.70;60.30;;;;;;5024926;28;20470;-59
2023/03/29 01:56:39;;;;;;;5.20;4.20;;;5.70;60.30;;;;;;5018972;28;20470;-58
2023/03/29 01:59:11;;;;;;;7.40;4.50;;;5.70;59.90;;;;;;5017735;28;20426;-58
2023/03/29 02:01:47;;;;;;;11.83;5.00;;;5.70;59.90;;;;;;5017207;28;20455;-58
2023/03/29 02:04:21;;;;;;;6.93;4.80;;;5.70;59.80;;;;;;5019490;28;20486;-59
2023/03/29 02:06:49;;;;;;;6.67;4.70;;;5.70;59.80;;;;;;5021579;28;20422;-59
2023/03/29 02:09:15;;;;;;;5.70;4.17;;;5.70;59.90;;;;;;5021974;28;20434;-59
2023/03/29 02:11:43;;;;;;;7.90;4.30;;;5.70;59.90;;;;;;5016943;28;20537;-58
2023/03/29 02:14:09;;;;;;;10.03;4.70;;;5.70;59.80;;;;;;5019486;28;20514;-59
2023/03/29 02:16:38;;;;;;;6.17;4.47;;;5.70;59.70;;;;;;5018689;28;21062;-57
2023/03/29 02:19:06;;;;;;;10.60;5.70;;;5.70;59.80;;;;;;5022598;28;20178;-58
2023/03/29 02:21:47;;;;;;;5.50;4.20;;;5.70;59.60;;;;;;5018143;28;20419;-59
2023/03/29 02:24:16;;;;;;;6.73;4.40;;;5.70;59.60;;;;;;5022247;28;20462;-59
2023/03/29 02:26:42;;;;;;;5.90;4.53;;;5.70;59.70;;;;;;5018464;28;20421;-58
2023/03/29 02:29:08;;;;;;;7.97;4.23;;;5.70;60.00;;;;;;5019696;28;20513;-59
2023/03/29 02:31:39;;;;;;;6.30;4.33;;;5.70;60.20;;;;;;5019075;28;20179;-59
2023/03/29 02:34:16;;;;;;;6.87;4.53;;;5.70;60.20;;;;;;5020280;28;20488;-60
2023/03/29 02:36:49;;;;;;;7.27;4.83;;;5.70;60.20;;;;;;5019705;28;20504;-58
2023/03/29 02:39:17;;;;;;;9.30;4.93;;;5.70;59.80;;;;;;5019885;28;20932;-59
2023/03/29 02:41:46;;;;;;;8.77;5.40;;;5.70;60.30;;;;;;5021525;28;20427;-58
2023/03/29 02:44:15;;;;;;;6.83;3.80;;;5.70;60.40;;;;;;5019082;28;20463;-58
2023/03/29 02:46:42;;;;;;;6.83;4.67;;;5.70;60.50;;;;;;5021912;28;20554;-58
2023/03/29 02:49:11;;;;;;;12.40;4.90;;;5.70;60.40;;;;;;5019789;28;20518;-59
2023/03/29 02:51:37;;;;;;;8.63;4.30;;;5.70;60.50;;;;;;5019673;28;20444;-58
2023/03/29 02:54:12;;;;;;;6.50;4.20;;;5.70;60.50;;;;;;5021683;28;21218;-59
2023/03/29 02:56:58;;;;;;;9.70;4.10;;;5.70;60.70;;;;;;5018529;28;20472;-59
2023/03/29 02:59:24;;;;;;;6.80;4.37;;;5.70;60.80;;;;;;5023328;28;21171;-62
2023/03/29 03:01:51;;;;;;;8.47;4.60;;;5.70;60.90;;;;;;5021939;28;20517;-59
2023/03/29 03:04:19;;;;;;;6.70;4.37;;;5.80;61.10;;;;;;5018671;28;20635;-57
2023/03/29 03:06:46;;;;;;;6.33;4.00;;;5.80;61.20;;;;;;5018307;28;20455;-57
2023/03/29 03:09:12;;;;;;;6.60;4.10;;;5.70;61.40;;;;;;5015437;28;20435;-58
2023/03/29 03:11:38;;;;;;;7.20;3.77;;;5.70;61.60;;;;;;5022090;28;20413;-57
2023/03/29 03:14:05;;;;;;;9.43;4.20;;;5.70;61.70;;;;;;5021182;28;20646;-58
2023/03/29 03:16:31;;;;;;;7.70;4.40;;;5.70;62.00;;;;;;5026086;28;20462;-58
2023/03/29 03:18:57;;;;;;;7.10;4.60;;;5.70;62.00;;;;;;5026617;28;20433;-59
2023/03/29 03:21:23;;;;;;;7.93;4.40;;;5.70;61.90;;;;;;5025707;28;20477;-59
2023/03/29 03:23:49;;;;;;;7.30;4.37;;;5.70;61.80;;;;;;5028506;28;20470;-59
2023/03/29 03:26:16;;;;;;;5.63;3.40;;;5.70;61.40;;;;;;5025594;28;20549;-58
2023/03/29 03:28:42;;;;;;;5.77;4.10;;;5.70;61.40;;;;;;5023676;28;20255;-59
2023/03/29 03:31:08;;;;;;;7.47;4.50;;;5.70;61.40;;;;;;5020693;28;20938;-58
2023/03/29 03:33:33;;;;;;;6.73;4.23;;;5.70;61.40;;;;;;5022936;28;20427;-57
2023/03/29 03:36:05;;;;;;;5.23;3.93;;;5.70;61.90;;;;;;5022766;28;20280;-58
2023/03/29 03:38:32;;;;;;;6.33;4.30;;;5.70;62.30;;;;;;5019892;28;20164;-58
2023/03/29 03:40:59;;;;;;;15.40;4.70;;;5.70;62.10;;;;;;5020068;28;20529;-59
2023/03/29 03:43:26;;;;;;;12.43;4.80;;;5.70;62.40;;;;;;5018824;28;20457;-58
2023/03/29 03:45:52;;;;;;;8.90;4.70;;;5.70;62.20;;;;;;5021511;28;20832;-57
2023/03/29 03:48:18;;;;;;;7.33;4.33;;;5.70;62.70;;;;;;5019568;28;21023;-58
2023/03/29 03:50:52;;;;;;;12.33;5.20;;;5.70;63.10;;;;;;5021614;28;20216;-58
2023/03/29 03:53:18;;;;;;;6.87;4.13;;;5.70;64.90;;;;;;5021293;28;20273;-55
2023/03/29 03:55:50;;;;;;;9.00;5.40;;;5.70;66.00;;;;;;5011511;28;20976;-60
2023/03/29 03:58:17;;;;;;;8.67;5.20;;;5.70;67.60;;;;;;5020273;28;20190;-60
2023/03/29 04:00:44;;;;;;;8.80;5.03;;;5.70;68.50;;;;;;5018376;28;20437;-59
2023/03/29 04:03:09;;;;;;;9.30;4.80;;;5.70;71.20;;;;;;5007158;28;20485;-57
2023/03/29 04:05:40;;;;;;;8.33;4.37;;;5.70;73.80;;;;;;5010174;28;20826;-56
2023/03/29 04:08:06;;;;;;;5.00;4.00;;;5.70;77.20;;;;;;5014249;28;20438;-58
2023/03/29 04:10:33;;;;;;;12.80;4.30;;;5.70;76.60;;;;;;5007412;28;20439;-57
2023/03/29 04:13:03;;;;;;;10.30;4.03;;;5.60;76.80;;;;;;5013245;28;20445;-57
2023/03/29 04:15:30;;;;;;;10.60;6.00;;;5.70;78.10;;;;;;5022768;28;20454;-57
2023/03/29 04:17:56;;;;;;;10.70;5.00;;;5.60;80.10;;;;;;5019273;28;21023;-57
2023/03/29 04:20:23;;;;;;;6.23;4.60;;;5.60;81.20;;;;;;5015550;28;20439;-56
2023/03/29 04:22:52;;;;;;;6.10;4.00;;;5.60;82.90;;;;;;5013366;28;20466;-57
2023/03/29 04:25:18;;;;;;;7.50;4.37;;;5.60;82.80;;;;;;5014156;28;20450;-58
2023/03/29 04:27:45;;;;;;;7.30;3.80;;;5.60;80.50;;;;;;5011711;28;20429;-59
2023/03/29 04:30:11;;;;;;;7.60;4.73;;;5.60;78.90;;;;;;5021429;28;20434;-58
2023/03/29 04:32:37;;;;;;;7.67;4.30;;;5.60;76.70;;;;;;5018748;28;20435;-51
2023/03/29 04:35:03;;;;;;;4.50;3.50;;;5.60;74.90;;;;;;5017125;28;20433;-58
2023/03/29 04:37:30;;;;;;;4.27;3.87;;;5.60;74.20;;;;;;5014427;28;20256;-58
2023/03/29 04:39:56;;;;;;;4.30;3.90;;;5.60;73.70;;;;;;5010040;28;20425;-59
2023/03/29 04:42:22;;;;;;;6.27;4.27;;;5.60;73.60;;;;;;5012112;28;20430;-57
2023/03/29 04:44:48;;;;;;;7.30;4.30;;;5.60;73.60;;;;;;5018823;28;20458;-58
2023/03/29 04:47:13;;;;;;;7.40;4.30;;;5.60;73.70;;;;;;5020332;28;21188;-56
2023/03/29 04:49:40;;;;;;;8.03;4.73;;;5.60;74.00;;;;;;5012741;28;20176;-56
2023/03/29 04:52:06;;;;;;;6.93;4.20;;;5.60;74.90;;;;;;5028966;28;20649;-56
2023/03/29 04:54:32;;;;;;;8.10;5.17;;;5.60;74.50;;;;;;5021994;28;20541;-57
2023/03/29 04:56:57;;;;;;;9.80;4.93;;;5.60;76.00;;;;;;5028866;28;20541;-57
2023/03/29 04:59:23;;;;;;;7.23;4.93;;;5.70;77.50;;;;;;5022631;28;20717;-58
2023/03/29 05:01:48;;;;;;;8.00;5.50;;;5.70;78.30;;;;;;5025567;28;20784;-60
2023/03/29 05:04:14;;;;;;;10.70;4.83;;;5.70;79.10;;;;;;5024782;28;20246;-57
2023/03/29 05:06:40;;;;;;;9.23;5.40;;;5.70;81.00;;;;;;5026332;28;20200;-55
2023/03/29 05:09:06;;;;;;;9.00;4.93;;;5.70;81.50;;;;;;5022668;28;20261;-58
2023/03/29 05:11:32;;;;;;;9.83;5.50;;;5.70;82.50;;;;;;5024822;28;20179;-59
2023/03/29 05:14:01;;;;;;;9.33;5.40;;;5.70;83.30;;;;;;5022558;28;20849;-58
2023/03/29 05:16:30;;;;;;;12.23;5.40;;;5.70;83.80;;;;;;5027989;28;20545;-59
2023/03/29 05:18:56;;;;;;;7.50;5.40;;;5.80;83.60;;;;;;5028139;28;20441;-59
2023/03/29 05:21:22;;;;;;;11.77;5.83;;;5.80;83.20;;;;;;5024058;28;20431;-58
2023/03/29 05:23:48;;;;;;;12.70;6.97;;;5.70;84.10;;;;;;5027558;28;20489;-58
2023/03/29 05:26:14;;;;;;;6.97;5.00;;;5.70;87.10;;;;;;5027501;28;22429;-57
2023/03/29 05:28:40;;;;;;;8.43;5.50;;;5.70;89.30;;;;;;5022808;28;20286;-57
2023/03/29 05:31:07;;;;;;;11.47;5.83;;;5.70;87.60;;;;;;5029234;28;20168;-57
2023/03/29 05:33:33;;;;;;;7.30;4.90;;;5.80;88.30;;;;;;5026011;28;20434;-57
2023/03/29 05:36:07;;;;;;;6.10;4.43;;;5.80;87.20;;;;;;5028480;28;20442;-59
2023/03/29 05:38:33;;;;;;;6.70;4.00;;;5.80;86.80;;;;;;5022417;28;20443;-56
2023/03/29 05:41:00;;;;;;;13.30;5.90;;;5.80;85.10;;;;;;5028052;28;20452;-58
2023/03/29 05:43:26;;;;;;;11.60;5.20;;;5.80;83.20;;;;;;5028681;28;20466;-59
2023/03/29 05:45:55;;;;;;;11.27;5.70;;;5.80;82.80;;;;;;5026316;28;20516;-57
2023/03/29 05:48:22;;;;;;;8.80;4.97;;;5.80;83.00;;;;;;5026689;28;20426;-58
2023/03/29 05:50:49;;;;;;;10.17;5.00;;;5.80;83.30;;;;;;5028829;28;20982;-58
2023/03/29 05:53:19;;;;;;;6.93;5.37;;;5.80;83.90;;;;;;5028319;28;20430;-57
2023/03/29 05:55:45;;;;;;;8.23;4.97;;;5.80;84.10;;;;;;5026290;28;20442;-58
2023/03/29 05:58:12;;;;;;;5.77;4.23;;;5.80;81.80;;;;;;5022759;28;20433;-58
2023/03/29 06:00:38;;;;;;;16.50;4.93;;;5.80;77.80;;;;;;5029638;28;20781;-58
2023/03/29 06:03:06;;;;;;;7.77;4.00;;;5.80;75.60;;;;;;5024862;28;21129;-58
2023/03/29 06:05:32;;;;;;;8.07;4.30;;;5.80;74.20;;;;;;5026119;28;20458;-58
2023/03/29 06:07:57;;;;;;;6.97;4.63;;;5.90;73.90;;;;;;5013514;28;20450;-58
2023/03/29 06:10:23;;;;;;;8.00;4.50;;;5.90;73.80;;;;;;5029542;28;20458;-58
2023/03/29 06:12:50;;;;;;;7.33;4.23;;;5.90;73.20;;;;;;5017754;28;20633;-59
2023/03/29 06:15:16;;;;;;;9.87;5.30;;;6.00;73.20;;;;;;5019975;28;20199;-59
2023/03/29 06:17:44;;;;;;;9.47;5.53;;;6.00;72.90;;;;;;5025929;28;20843;-57
2023/03/29 06:20:11;;;;;;;6.27;4.60;;;6.00;73.10;;;;;;5025597;28;20438;-58
2023/03/29 06:22:40;;;;;;;6.60;4.43;;;6.00;73.50;;;;;;5027626;28;20450;-59
2023/03/29 06:25:09;;;;;;;7.50;4.73;;;6.10;74.50;;;;;;5027734;28;20835;-59
2023/03/29 06:27:35;;;;;;;7.90;5.40;;;6.10;74.30;;;;;;5024267;28;20433;-57
2023/03/29 06:30:02;;;;;;;8.40;5.53;;;6.10;74.20;;;;;;5026548;28;20427;-58
2023/03/29 06:32:28;;;;;;;7.77;4.93;;;6.20;74.50;;;;;;5022244;28;20447;-58
2023/03/29 06:34:54;;;;;;;5.67;4.67;;;6.20;74.20;;;;;;5022715;28;20430;-58
2023/03/29 06:37:22;;;;;;;10.20;4.50;;;6.30;74.70;;;;;;5017213;28;20431;-57
2023/03/29 06:39:51;;;;;;;11.40;5.10;;;6.30;73.00;;;;;;5027508;28;20179;-58
2023/03/29 06:42:21;;;;;;;8.47;5.03;;;6.30;73.00;;;;;;5025896;28;20515;-58
2023/03/29 06:44:48;;;;;;;6.33;4.57;;;6.40;72.50;;;;;;5023020;28;20497;-58
2023/03/29 06:47:15;;;;;;;10.30;4.67;;;6.40;71.30;;;;;;5018320;28;20966;-59
2023/03/29 06:49:41;;;;;;;5.70;4.83;;;6.40;70.80;;;;;;5020348;28;20943;-57
2023/03/29 06:52:07;;;;;;;9.83;4.33;;;6.50;70.50;;;;;;5026118;28;20437;-58
2023/03/29 06:54:33;;;;;;;9.40;4.60;;;6.50;69.20;;;;;;5027170;28;20181;-57
2023/03/29 06:56:59;;;;;;;6.83;4.77;;;6.50;68.60;;;;;;5027621;28;20458;-57
2023/03/29 06:59:25;;;;;;;8.80;5.27;;;6.50;68.40;;;;;;5032194;28;20517;-58
2023/03/29 07:01:52;;;;;;;9.67;4.77;;;6.50;68.00;;;;;;5030664;28;20569;-57
2023/03/29 07:04:19;;;;;;;14.60;5.13;;;6.60;67.70;;;;;;5026192;28;20196;-57
2023/03/29 07:06:47;;;;;;;16.50;5.03;;;6.60;66.70;;;;;;5029981;28;20597;-57
2023/03/29 07:09:18;;;;;;;7.90;4.00;;;6.60;66.10;;;;;;5032443;28;20501;-57
2023/03/29 07:11:45;;;;;;;8.10;4.50;;;6.60;65.80;;;;;;5028533;28;20516;-58
2023/03/29 07:14:11;;;;;;;9.87;5.87;;;6.60;66.00;;;;;;5030758;28;20430;-57
2023/03/29 07:16:36;;;;;;;7.83;4.87;;;6.60;66.60;;;;;;5030401;28;20462;-58
2023/03/29 07:19:03;;;;;;;9.67;4.53;;;6.70;66.90;;;;;;5029380;28;20184;-58
2023/03/29 07:21:29;;;;;;;8.33;4.80;;;6.80;66.70;;;;;;5031008;28;20215;-57
2023/03/29 07:23:57;;;;;;;9.63;4.40;;;6.80;65.90;;;;;;5030949;28;20869;-57
2023/03/29 07:26:23;;;;;;;9.67;4.70;;;6.90;65.60;;;;;;5030716;28;21013;-58
2023/03/29 07:28:49;;;;;;;7.87;4.80;;;6.90;65.20;;;;;;5026294;28;20472;-58
2023/03/29 07:31:16;;;;;;;13.70;5.13;;;7.00;65.10;;;;;;5027343;28;21005;-59
2023/03/29 07:33:42;;;;;;;8.20;4.53;;;7.10;65.20;;;;;;5032247;28;20607;-58
2023/03/29 07:36:09;;;;;;;11.30;4.73;;;7.20;65.10;;;;;;5031515;28;20447;-57
2023/03/29 07:38:35;;;;;;;5.90;3.83;;;7.30;64.30;;;;;;5028378;28;22303;-57
2023/03/29 07:41:03;;;;;;;8.33;4.00;;;7.40;64.30;;;;;;5029532;28;20434;-58
2023/03/29 07:43:29;;;;;;;5.40;4.07;;;7.50;64.40;;;;;;5029481;28;20462;-58
2023/03/29 07:45:57;;;;;;;5.87;3.90;;;7.60;64.00;;;;;;5030076;28;20545;-57
2023/03/29 07:48:24;;;;;;;6.30;4.23;;;7.70;63.70;;;;;;5022949;28;20186;-57
2023/03/29 07:50:49;;;;;;;9.77;4.60;;;7.80;63.60;;;;;;5025926;28;20434;-57
2023/03/29 07:53:15;;;;;;;12.50;4.33;;;7.90;63.70;;;;;;5026495;28;20442;-57
2023/03/29 07:55:46;;;;;;;9.03;4.40;;;7.90;64.00;;;;;;5026876;28;20583;-57
2023/03/29 07:58:13;;;;;;;8.03;4.13;;;8.00;63.80;;;;;;5026440;28;20426;-57
2023/03/29 08:00:40;;;;;;;5.17;4.50;;;8.10;62.80;;;;;;5029062;28;21061;-58
2023/03/29 08:03:06;;;;;;;7.97;5.07;;;8.10;62.60;;;;;;5026062;28;21025;-58
2023/03/29 08:05:31;;;;;;;4.77;3.63;;;8.20;62.20;;;;;;5022322;28;20450;-57
2023/03/29 08:07:58;;;;;;;8.30;3.90;;;8.20;61.30;;;;;;5025022;28;20785;-59
2023/03/29 08:10:25;;;;;;;8.17;4.00;;;8.30;61.10;;;;;;5024388;28;20212;-59
2023/03/29 08:12:51;;;;;;;6.00;3.77;;;8.40;61.30;;;;;;5028691;28;20526;-58
2023/03/29 08:15:17;;;;;;;13.00;3.70;;;8.50;61.50;;;;;;5025281;28;20616;-58
2023/03/29 08:17:43;;;;;;;6.50;3.50;;;8.60;60.90;;;;;;5025319;28;20430;-59
2023/03/29 08:20:11;;;;;;;3.50;3.00;;;8.70;60.50;;;;;;5027386;28;20429;-59
2023/03/29 08:22:37;;;;;;;10.13;4.37;;;8.80;59.50;;;;;;5028395;28;20656;-59
2023/03/29 08:25:04;;;;;;;4.80;3.30;;;8.80;57.40;;;;;;5026352;28;20430;-58
2023/03/29 08:27:31;;;;;;;7.00;3.13;;;8.90;56.40;;;;;;5017688;28;20418;-58
2023/03/29 08:29:56;;;;;;;5.00;3.27;;;8.90;56.60;;;;;;5023839;28;20437;-57
2023/03/29 08:32:22;;;;;;;6.97;3.33;;;9.00;56.50;;;;;;5019814;28;20426;-56
2023/03/29 08:34:47;;;;;;;4.47;3.00;;;9.10;56.50;;;;;;5021039;28;20673;-58
2023/03/29 08:37:13;;;;;;;8.57;3.33;;;9.20;56.20;;;;;;5021576;28;20318;-57
2023/03/29 08:39:39;;;;;;;7.80;4.00;;;9.30;55.00;;;;;;5020491;28;20183;-57
2023/03/29 08:42:20;;;;;;;5.23;3.10;;;9.30;54.70;;;;;;5025992;28;20578;-57
2023/03/29 08:44:58;;;;;;;10.43;3.40;;;9.40;55.30;;;;;;5010111;28;20215;-56
2023/03/29 08:47:43;;;;;;;4.80;3.20;;;9.50;55.10;;;;;;5027848;28;20847;-56
2023/03/29 08:50:11;;;;;;;7.97;3.17;;;9.60;54.30;;;;;;5014744;28;20415;-58
2023/03/29 08:52:57;;;;;;;3.53;3.10;;;9.60;53.70;;;;;;5016948;28;20978;-56
2023/03/29 08:55:36;;;;;;;7.33;3.07;;;9.70;54.10;;;;;;5024701;28;20461;-57
2023/03/29 08:58:06;;;;;;;6.90;3.13;;;9.80;53.60;;;;;;5020961;28;20492;-57
2023/03/29 09:00:45;;;;;;;4.83;2.47;;;9.90;53.90;;;;;;5027546;28;20427;-56
2023/03/29 09:03:21;;;;;;;7.43;2.90;;;10.00;52.80;;;;;;5024260;28;21102;-57
2023/03/29 09:06:07;;;;;;;3.50;2.43;;;10.10;51.90;;;;;;5024789;28;20457;-56
2023/03/29 09:08:53;;;;;;;3.33;2.40;;;10.10;51.90;;;;;;5017980;28;20445;-55
2023/03/29 09:12:15;;;;;;;12.40;3.23;;;10.30;51.70;;;;;;5018390;28;20435;-56
2023/03/29 09:14:46;;;;;;;3.63;2.30;;;10.40;51.70;;;;;;5003089;28;20446;-56
2023/03/29 09:17:46;;;;;;;4.83;2.43;;;10.60;51.10;;;;;;4997436;28;20975;-58
2023/03/29 09:20:25;;;;;;;2.90;2.07;;;10.70;50.00;;;;;;5005152;28;20488;-56
2023/03/29 09:23:28;;;;;;;4.83;2.50;;;10.90;49.80;;;;;;5016965;28;20565;-56
2023/03/29 09:26:00;;;;;;;5.97;2.20;;;11.00;49.00;;;;;;5017190;28;20966;-57
2023/03/29 09:28:57;;;;;;;4.37;2.27;;;11.10;49.00;;;;;;5017484;28;20427;-56
2023/03/29 09:31:36;;;;;;;3.67;2.33;;;11.20;47.60;;;;;;5019369;28;20430;-58
2023/03/29 09:34:32;;;;;;;2.50;2.13;;;11.30;47.60;;;;;;5017311;28;20997;-57
2023/03/29 09:37:09;;;;;;;5.30;1.90;;;11.40;47.30;;;;;;5024820;28;20452;-57
2023/03/29 09:39:36;;;;;;;5.30;2.33;;;11.40;47.10;;;;;;5029197;28;20430;-56
2023/03/29 09:42:07;;;;;;;2.93;2.30;;;11.50;46.50;;;;;;5018662;28;20427;-56
2023/03/29 09:44:56;;;;;;;12.30;2.50;;;11.60;46.30;;;;;;5030121;28;20450;-57
2023/03/29 09:47:28;;;;;;;8.63;2.37;;;11.60;46.50;;;;;;5030961;28;20442;-56
2023/03/29 09:49:59;;;;;;;2.30;2.00;;;11.70;46.50;;;;;;5024985;28;20418;-56
2023/03/29 09:52:25;;;;;;;3.23;2.10;;;11.80;45.70;;;;;;5021064;28;20426;-57
2023/03/29 09:54:51;;;;;;;4.00;1.97;;;11.90;45.30;;;;;;5013425;28;20464;-56
2023/03/29 09:57:18;;;;;;;5.40;2.10;;;11.90;45.40;;;;;;5024900;28;20215;-56
2023/03/29 09:59:45;;;;;;;4.03;2.30;;;12.00;45.60;;;;;;5024884;28;20457;-56
2023/03/29 10:02:12;;;;;;;2.57;1.73;;;12.00;45.40;;;;;;5026094;28;20433;-57
2023/03/29 10:04:41;;;;;;;2.10;1.90;;;12.10;45.30;;;;;;5018991;28;21049;-57
2023/03/29 10:07:16;;;;;;;4.47;2.37;;;12.20;45.50;;;;;;5025580;28;20803;-56
2023/03/29 10:09:44;;;;;;;2.50;1.80;;;12.30;45.20;;;;;;5023686;28;20430;-56
2023/03/29 10:12:12;;;;;;;7.23;2.17;;;12.40;44.10;;;;;;5025594;28;20435;-57
2023/03/29 10:14:43;;;;;;;4.30;2.37;;;12.40;44.40;;;;;;5018935;28;20442;-56
2023/03/29 10:17:20;;;;;;;3.63;2.03;;;12.40;44.50;;;;;;5015487;28;20460;-55
2023/03/29 10:19:49;;;;;;;4.20;2.03;;;12.30;44.20;;;;;;5025535;28;20837;-56
2023/03/29 10:22:20;;;;;;;4.10;1.90;;;12.30;44.60;;;;;;5025472;28;20438;-55
2023/03/29 10:24:51;;;;;;;2.30;1.60;;;12.30;44.50;;;;;;5021389;28;21021;-56
2023/03/29 10:27:22;;;;;;;4.50;2.50;;;12.20;44.40;;;;;;5019591;28;20538;-56
2023/03/29 10:29:48;;;;;;;8.53;2.13;;;12.20;44.70;;;;;;5028513;28;20492;-55
2023/03/29 10:32:34;;;;;;;3.03;2.33;;;12.30;44.40;;;;;;5019990;28;20521;-55
2023/03/29 10:35:09;;;;;;;5.07;2.27;;;12.30;44.20;;;;;;5024538;28;20433;-54
2023/03/29 10:37:40;;;;;;;3.43;2.43;;;12.30;44.70;;;;;;5023956;28;20433;-55
2023/03/29 10:40:14;;;;;;;3.17;2.37;;;12.30;45.20;;;;;;5018285;28;20438;-55
2023/03/29 10:42:48;;;;;;;3.20;2.50;;;12.30;44.70;;;;;;5022099;28;20423;-57
2023/03/29 10:45:26;;;;;;;6.80;2.43;;;12.30;43.80;;;;;;5014493;28;20431;-56
2023/03/29 10:47:55;;;;;;;3.53;2.00;;;12.30;43.70;;;;;;5017319;28;21818;-56
2023/03/29 10:50:21;;;;;;;6.27;2.10;;;12.30;43.90;;;;;;5017515;28;20426;-56
2023/03/29 10:52:49;;;;;;;5.80;2.20;;;12.30;44.10;;;;;;5018906;28;20427;-56
2023/03/29 10:55:15;;;;;;;4.23;2.00;;;12.20;44.10;;;;;;5014715;28;20187;-58
2023/03/29 10:57:49;;;;;;;2.37;2.07;;;12.30;44.00;;;;;;5016649;28;20423;-56
2023/03/29 11:00:28;;;;;;;2.40;2.07;;;12.30;44.20;;;;;;5014624;28;21027;-57
2023/03/29 11:03:14;;;;;;;2.30;2.10;;;12.30;43.70;;;;;;4997690;28;20426;-57
2023/03/29 11:06:06;;;;;;;2.70;2.13;;;12.40;44.10;;;;;;5014286;28;20454;-58
2023/03/29 11:08:37;;;;;;;4.47;1.97;;;12.40;44.10;;;;;;5022580;28;20434;-57
2023/03/29 11:11:12;;;;;;;4.10;2.20;;;12.40;43.70;;;;;;5020151;28;20440;-56
2023/03/29 11:13:49;;;;;;;9.63;2.20;;;12.40;44.30;;;;;;5004336;28;20475;-56
2023/03/29 11:16:28;;;;;;;2.97;2.20;;;12.40;43.90;;;;;;5017908;28;20508;-57
2023/03/29 11:19:09;;;;;;;9.03;2.43;;;12.40;44.30;;;;;;5008400;28;20513;-56
2023/03/29 11:21:50;;;;;;;1.83;1.40;;;12.40;44.50;;;;;;5012639;28;20435;-56
2023/03/29 11:24:37;;;;;;;5.27;2.07;;;12.50;44.30;;;;;;5011686;28;20462;-57
2023/03/29 11:27:27;;;;;;;2.10;1.70;;;12.50;44.80;;;;;;5016855;28;20509;-57
2023/03/29 11:30:12;;;;;;;2.90;1.67;;;12.70;44.50;;;;;;5015182;28;20437;-54
2023/03/29 11:32:58;;;;;;;5.60;2.00;;;12.80;44.00;;;;;;5017073;28;20454;-54
2023/03/29 11:35:55;;;;;;;1.87;1.60;;;12.90;43.30;;;;;;5026506;28;20442;-54
2023/03/29 11:38:31;;;;;;;1.73;1.43;;;13.00;42.90;;;;;;5034113;28;20421;-54
2023/03/29 11:40:59;;;;;;;4.87;1.50;;;13.00;42.70;;;;;;5021245;28;21041;-54
2023/03/29 11:44:10;;;;;;;3.50;1.57;;;13.10;42.90;;;;;;5032612;28;20448;-56
2023/03/29 11:46:42;;;;;;;1.50;1.40;;;13.20;41.70;;;;;;5027046;28;20459;-55
2023/03/29 11:49:20;;;;;;;7.47;1.83;;;13.30;40.00;;;;;;5030290;28;20443;-54
2023/03/29 11:52:24;;;;;;;2.80;1.40;;;13.30;40.10;;;;;;5028667;28;20489;-54
2023/03/29 11:55:02;;;;;;;7.10;1.40;;;13.40;39.70;;;;;;5029795;28;20469;-55
2023/03/29 11:57:48;;;;;;;3.50;1.23;;;13.50;39.90;;;;;;5029314;28;20502;-55
2023/03/29 12:00:27;;;;;;;2.27;1.60;;;13.70;40.00;;;;;;5022938;28;20472;-55
2023/03/29 12:03:08;;;;;;;4.67;1.33;;;13.90;40.30;;;;;;5020008;28;20819;-56
2023/03/29 12:05:51;;;;;;;3.63;1.33;;;14.10;40.40;;;;;;5016934;28;20464;-54
2023/03/29 12:08:36;;;;;;;3.60;1.50;;;14.30;40.10;;;;;;5022274;28;20454;-54
2023/03/29 12:11:23;;;;;;;6.43;1.67;;;14.50;39.90;;;;;;5023617;28;20433;-54
2023/03/29 12:14:01;;;;;;;4.53;1.70;;;14.80;40.10;;;;;;5025296;28;20438;-54
2023/03/29 12:16:40;;;;;;;2.47;1.50;;;15.00;39.70;;;;;;5009765;28;20493;-55
2023/03/29 12:19:17;;;;;;;2.70;1.60;;;14.90;39.70;;;;;;5025379;28;20458;-53
2023/03/29 12:21:45;;;;;;;4.87;2.13;;;14.80;39.80;;;;;;5029863;28;20453;-56
2023/03/29 12:24:15;;;;;;;1.70;1.20;;;14.80;39.60;;;;;;5027026;28;20510;-54
2023/03/29 12:26:52;;;;;;;2.50;1.33;;;14.90;39.30;;;;;;5019599;28;20457;-54
2023/03/29 12:29:21;;;;;;;1.53;1.10;;;14.90;38.50;;;;;;5022064;28;20458;-55
2023/03/29 12:32:24;;;;;;;3.30;1.10;;;15.00;36.60;;;;;;5016739;28;20484;-56
2023/03/29 12:35:13;;;;;;;10.47;1.23;;;15.10;36.70;;;;;;5019654;28;20438;-56
2023/03/29 12:37:57;;;;;;;6.83;1.40;;;15.10;37.10;;;;;;5019052;28;20428;-55
2023/03/29 12:40:26;;;;;;;5.20;1.63;;;15.20;37.50;;;;;;5019518;28;20482;-55
2023/03/29 12:43:02;;;;;;;3.53;1.63;;;15.30;37.20;;;;;;5021380;28;20430;-54
2023/03/29 12:45:41;;;;;;;2.30;1.30;;;15.50;36.70;;;;;;5022495;28;20454;-56
2023/03/29 12:48:25;;;;;;;2.60;1.47;;;15.60;36.10;;;;;;5018353;28;20434;-55
2023/03/29 12:51:01;;;;;;;1.70;1.13;;;15.60;36.30;;;;;;5028917;28;20442;-55
2023/03/29 12:53:40;;;;;;;2.37;1.20;;;15.80;36.10;;;;;;5030385;28;20923;-55
2023/03/29 12:56:13;;;;;;;3.43;1.50;;;16.00;35.00;;;;;;5029753;28;20844;-56
2023/03/29 12:58:38;;;;;;;3.90;1.77;;;16.00;34.60;;;;;;5027125;28;20446;-55
2023/03/29 13:01:26;;;;;;;3.27;1.70;;;16.10;35.20;;;;;;5026636;28;20438;-56
2023/03/29 13:03:58;;;;;;;4.77;1.50;;;16.40;35.50;;;;;;5024582;28;20205;-55
2023/03/29 13:06:34;;;;;;;9.37;1.80;;;16.90;34.60;;;;;;5020341;28;20503;-55
2023/03/29 13:09:01;;;;;;;3.90;1.87;;;17.40;34.60;;;;;;5022689;28;20410;-56
2023/03/29 13:11:38;;;;;;;4.10;1.80;;;17.70;35.20;;;;;;5025171;28;20454;-57
2023/03/29 13:14:15;;;;;;;1.40;1.30;;;18.00;35.10;;;;;;5022012;28;20434;-55
2023/03/29 13:16:42;;;;;;;4.70;1.47;;;18.10;35.30;;;;;;5023131;28;20469;-56